Time;durP1;ratioP1;P1;durP2;ratioP2;P2;SDS_P1;SDS_P2;PMS_P1;PMS_P2;Temp;Humidity;BMP_temperature;BMP_pressure;BME280_temperature;BME280_humidity;BME280_pressure;Samples;Min_cycle;Max_cycle;Signal;HPM_P1;HPM_P2
2022/12/17 13:06:55;;;;;;;57.17;26.92;;;0.20;99.90;;;;;;4894320;29;20067;-78
2022/12/17 13:09:27;;;;;;;57.13;27.25;;;0.30;99.90;;;;;;4965818;28;20108;-78
2022/12/17 13:11:59;;;;;;;64.83;29.90;;;0.20;99.90;;;;;;4986088;28;20493;-78
2022/12/17 13:14:30;;;;;;;63.63;28.17;;;0.30;99.90;;;;;;4987781;28;20050;-78
2022/12/17 13:17:21;;;;;;;54.58;27.05;;;0.20;99.90;;;;;;4987551;28;20115;-78
2022/12/17 13:20:21;;;;;;;55.40;26.65;;;0.30;99.90;;;;;;4989185;28;20125;-79
2022/12/17 13:23:02;;;;;;;55.00;27.40;;;0.40;99.90;;;;;;4981609;28;20084;-78
2022/12/17 13:25:28;;;;;;;58.00;26.48;;;0.20;99.90;;;;;;4988847;28;20883;-77
2022/12/17 13:27:54;;;;;;;60.65;27.67;;;0.80;99.90;;;;;;4986885;28;20047;-76
2022/12/17 13:30:35;;;;;;;60.53;27.63;;;0.30;99.90;;;;;;4988696;28;20500;-77
2022/12/17 13:33:23;;;;;;;60.30;28.10;;;0.10;99.90;;;;;;4988339;28;20133;-77
2022/12/17 13:36:14;;;;;;;57.38;26.73;;;0.10;99.90;;;;;;4989387;28;20045;-77
2022/12/17 13:39:02;;;;;;;62.05;27.83;;;0.30;99.90;;;;;;4988862;28;20121;-77
2022/12/17 13:41:31;;;;;;;58.88;26.13;;;-0.10;99.90;;;;;;4987245;28;20470;-77
2022/12/17 13:44:01;;;;;;;57.53;27.65;;;0.10;99.90;;;;;;4986080;28;20044;-77
2022/12/17 13:46:40;;;;;;;58.95;26.58;;;0.30;99.90;;;;;;4987930;28;20050;-77
2022/12/17 13:49:17;;;;;;;61.42;27.98;;;0.10;99.90;;;;;;4989521;28;20559;-77
2022/12/17 13:51:43;;;;;;;56.60;26.38;;;0.30;99.90;;;;;;4987594;28;20046;-77
2022/12/17 13:54:16;;;;;;;55.63;27.02;;;0.00;99.90;;;;;;4975449;28;20064;-77
2022/12/17 13:56:43;;;;;;;60.47;26.10;;;0.10;99.90;;;;;;4988881;28;20093;-77
2022/12/17 13:59:22;;;;;;;62.25;27.48;;;0.00;99.90;;;;;;4984418;28;20766;-77
2022/12/17 14:01:53;;;;;;;56.42;25.38;;;0.20;99.90;;;;;;4988225;28;20078;-77
2022/12/17 14:04:20;;;;;;;58.53;25.55;;;0.00;99.90;;;;;;4987826;28;20050;-77
2022/12/17 14:06:47;;;;;;;55.03;25.67;;;0.00;99.90;;;;;;4987190;28;20046;-77
2022/12/17 14:09:17;;;;;;;59.47;25.67;;;0.10;99.90;;;;;;4988540;28;20104;-77
2022/12/17 14:14:33;;;;;;;58.72;25.73;;;0.40;99.90;;;;;;4988831;28;20042;-77
2022/12/17 14:16:59;;;;;;;59.17;26.42;;;-0.40;99.90;;;;;;4988963;28;20404;-77
2022/12/17 14:19:26;;;;;;;60.22;27.35;;;0.00;99.90;;;;;;4988140;28;20076;-78
2022/12/17 14:21:53;;;;;;;56.03;25.45;;;-0.10;99.90;;;;;;4987799;28;20057;-78
2022/12/17 14:24:22;;;;;;;57.90;25.60;;;0.00;99.90;;;;;;4988894;28;20050;-77
2022/12/17 14:26:55;;;;;;;62.42;24.92;;;-0.20;99.90;;;;;;4988723;28;20475;-77
2022/12/17 14:29:29;;;;;;;57.03;25.25;;;-0.30;99.90;;;;;;4986183;28;20054;-78
2022/12/17 14:31:57;;;;;;;64.45;28.17;;;-0.30;99.90;;;;;;4988772;28;20087;-77
2022/12/17 14:34:23;;;;;;;64.00;27.17;;;-0.40;99.90;;;;;;4984900;28;20145;-76
2022/12/17 14:37:02;;;;;;;59.92;25.52;;;-0.20;99.90;;;;;;4988697;28;20131;-77
2022/12/17 14:39:30;;;;;;;60.05;25.55;;;-0.30;99.90;;;;;;4988711;28;20207;-77
2022/12/17 14:44:52;;;;;;;58.53;25.67;;;-0.50;99.90;;;;;;4987003;28;20060;-77
2022/12/17 14:47:33;;;;;;;53.53;24.08;;;-0.50;99.90;;;;;;4987937;28;20054;-77
2022/12/17 14:50:04;;;;;;;60.03;24.27;;;-0.50;99.90;;;;;;4986193;28;20369;-77
2022/12/17 14:52:33;;;;;;;53.90;24.27;;;-0.40;99.90;;;;;;4967017;28;20079;-78
2022/12/17 14:54:59;;;;;;;59.85;24.48;;;-0.50;99.90;;;;;;4987202;28;20048;-77
2022/12/17 14:57:24;;;;;;;60.30;25.23;;;-0.30;99.90;;;;;;4986660;28;20471;-77
2022/12/17 14:59:51;;;;;;;60.88;26.35;;;-0.40;99.90;;;;;;4988688;28;20065;-77
2022/12/17 15:02:26;;;;;;;65.05;27.95;;;-0.70;99.90;;;;;;4986286;28;20100;-77
2022/12/17 15:04:56;;;;;;;63.15;25.52;;;-0.60;99.90;;;;;;4976316;28;20073;-77
2022/12/17 15:07:25;;;;;;;61.85;25.95;;;-0.70;99.90;;;;;;4988359;28;20042;-78
2022/12/17 15:09:52;;;;;;;63.17;25.63;;;;;;;;;;4988798;28;20039;-77
2022/12/17 15:12:19;;;;;;;61.67;25.25;;;;;;;;;;4987123;28;20097;-78
2022/12/17 15:14:45;;;;;;;62.55;26.42;;;;;;;;;;4989025;28;20797;-78
2022/12/17 15:17:11;;;;;;;59.92;24.58;;;-0.80;99.90;;;;;;4991959;28;20508;-78
2022/12/17 15:19:37;;;;;;;63.45;24.80;;;-0.70;99.90;;;;;;4992327;28;20042;-78
2022/12/17 15:22:03;;;;;;;69.28;27.75;;;-0.80;99.90;;;;;;4990601;28;20039;-78
2022/12/17 15:24:28;;;;;;;61.53;25.60;;;-0.70;99.90;;;;;;4991478;28;20082;-78
2022/12/17 15:26:54;;;;;;;65.88;26.55;;;-1.00;99.90;;;;;;4988699;28;20092;-78
2022/12/17 15:29:20;;;;;;;67.82;26.63;;;-0.80;99.90;;;;;;4990700;28;20079;-78
2022/12/17 15:31:45;;;;;;;78.82;33.47;;;-0.90;99.90;;;;;;4991801;28;20097;-78
2022/12/17 15:34:11;;;;;;;69.03;28.90;;;-0.80;99.90;;;;;;4987790;28;20073;-79
2022/12/17 15:36:37;;;;;;;67.63;28.15;;;-0.90;99.90;;;;;;4987698;28;20031;-78
2022/12/17 15:39:05;;;;;;;69.57;27.48;;;-1.10;99.90;;;;;;4991795;28;20050;-78
2022/12/17 15:44:14;;;;;;;67.63;27.67;;;-1.00;99.90;;;;;;4988768;28;20141;-78
2022/12/17 15:46:40;;;;;;;59.72;26.02;;;;;;;;;;4988226;28;20524;-78
2022/12/17 15:49:06;;;;;;;65.32;26.48;;;;;;;;;;4990026;28;20054;-78
2022/12/17 15:51:32;;;;;;;68.85;25.55;;;;;;;;;;4990958;28;20761;-78
2022/12/17 15:53:59;;;;;;;63.85;27.15;;;;;;;;;;4989197;28;20188;-78
2022/12/17 15:56:26;;;;;;;70.07;26.77;;;;;;;;;;4989968;28;20053;-78
2022/12/17 15:58:52;;;;;;;70.90;30.70;;;;;;;;;;4991122;28;20093;-78
2022/12/17 16:01:19;;;;;;;56.88;23.80;;;;;;;;;;4991163;28;20046;-77
2022/12/17 16:03:45;;;;;;;58.85;24.25;;;;;;;;;;4979929;28;20133;-77
2022/12/17 16:06:11;;;;;;;59.25;23.90;;;;;;;;;;4970518;28;20086;-78
2022/12/17 16:08:40;;;;;;;68.85;29.50;;;;;;;;;;4971593;28;20093;-78
2022/12/17 16:11:09;;;;;;;67.78;25.75;;;;;;;;;;4970006;28;20196;-78
2022/12/17 16:13:36;;;;;;;63.42;25.13;;;;;;;;;;4981652;28;20085;-79
2022/12/17 16:16:02;;;;;;;60.58;23.73;;;;;;;;;;4989670;28;20504;-79
2022/12/17 16:18:28;;;;;;;70.40;26.77;;;;;;;;;;4987758;28;20057;-78
2022/12/17 16:20:54;;;;;;;68.28;27.70;;;;;;;;;;4987184;28;20413;-79
2022/12/17 16:23:20;;;;;;;66.57;25.63;;;-1.00;99.90;;;;;;4989223;28;20046;-79
2022/12/17 16:26:00;;;;;;;69.22;26.13;;;-1.00;99.90;;;;;;4989694;28;20472;-79
2022/12/17 16:28:27;;;;;;;62.15;23.33;;;-1.00;99.90;;;;;;4988614;28;20500;-79
2022/12/17 16:31:16;;;;;;;68.65;26.70;;;-1.20;99.90;;;;;;4973161;28;20182;-79
2022/12/17 16:33:43;;;;;;;65.70;26.15;;;-1.30;99.90;;;;;;4987993;28;20105;-79
2022/12/17 16:36:12;;;;;;;64.93;24.52;;;-1.30;99.90;;;;;;4987786;28;20042;-78
2022/12/17 16:38:46;;;;;;;70.15;27.63;;;-1.20;99.90;;;;;;4990389;28;20552;-78
2022/12/17 16:41:13;;;;;;;64.78;24.73;;;-1.30;99.90;;;;;;4971584;28;20050;-78
2022/12/17 16:43:39;;;;;;;64.03;25.27;;;-1.30;99.90;;;;;;4989649;28;20054;-80
2022/12/17 16:46:05;;;;;;;64.60;24.83;;;-1.30;99.90;;;;;;4972406;28;20103;-78
2022/12/17 16:48:37;;;;;;;64.35;24.55;;;-1.40;99.90;;;;;;4990545;28;20057;-78
2022/12/17 16:51:14;;;;;;;66.38;25.00;;;-1.60;99.90;;;;;;4989353;28;20054;-78
2022/12/17 16:53:40;;;;;;;62.83;24.77;;;-1.60;99.90;;;;;;4987135;28;20046;-78
2022/12/17 16:56:06;;;;;;;65.07;23.58;;;-1.60;99.90;;;;;;4972131;28;20065;-79
2022/12/17 16:58:31;;;;;;;66.07;24.40;;;-1.60;99.90;;;;;;4988065;28;20060;-78
2022/12/17 17:00:57;;;;;;;67.82;24.13;;;-1.60;99.90;;;;;;4986752;28;20038;-79
2022/12/17 17:03:22;;;;;;;71.00;25.80;;;-1.80;99.90;;;;;;4988628;28;20034;-79
2022/12/17 17:05:48;;;;;;;69.05;26.60;;;-1.70;99.90;;;;;;4986929;28;20181;-79
2022/12/17 17:08:14;;;;;;;71.78;26.92;;;-1.70;99.90;;;;;;4988314;28;20144;-78
2022/12/17 17:10:40;;;;;;;71.25;26.55;;;-1.70;99.90;;;;;;4972337;28;20050;-78
2022/12/17 17:13:05;;;;;;;69.85;25.80;;;-1.50;99.90;;;;;;4988494;28;20113;-78
2022/12/17 17:15:31;;;;;;;64.50;24.63;;;-1.70;99.90;;;;;;4988497;28;20057;-79
2022/12/17 17:17:58;;;;;;;67.88;25.85;;;-1.70;99.90;;;;;;4988509;28;20061;-78
2022/12/17 17:20:23;;;;;;;66.93;26.15;;;-1.60;99.90;;;;;;4987948;28;20745;-79
2022/12/17 17:22:49;;;;;;;67.88;26.17;;;-1.60;99.90;;;;;;4988234;28;20046;-79
2022/12/17 17:25:14;;;;;;;65.72;24.33;;;-1.70;99.90;;;;;;4988452;28;20050;-79
2022/12/17 17:27:40;;;;;;;72.82;26.30;;;-1.70;99.90;;;;;;4987589;28;20051;-78
2022/12/17 17:30:06;;;;;;;73.90;26.27;;;-1.70;99.90;;;;;;4989582;28;20047;-78
2022/12/17 17:32:32;;;;;;;65.88;25.83;;;-1.70;99.90;;;;;;4987708;28;20054;-78
2022/12/17 17:34:57;;;;;;;68.65;27.52;;;-1.70;99.90;;;;;;4986998;28;20435;-78
2022/12/17 17:37:23;;;;;;;68.38;25.00;;;-2.20;99.90;;;;;;4986179;28;20043;-79
2022/12/17 17:39:49;;;;;;;63.15;25.95;;;-1.80;99.90;;;;;;4987050;28;20100;-78
2022/12/17 17:42:14;;;;;;;67.97;26.27;;;-1.80;99.90;;;;;;4987847;28;20043;-78
2022/12/17 17:44:40;;;;;;;69.68;25.40;;;-1.70;99.90;;;;;;4970420;28;20113;-78
2022/12/17 17:47:05;;;;;;;66.38;26.83;;;-1.80;99.90;;;;;;4988041;28;20038;-78
2022/12/17 17:49:31;;;;;;;64.50;25.63;;;-1.60;99.90;;;;;;4987796;28;20046;-78
2022/12/17 17:51:56;;;;;;;65.40;25.85;;;-1.80;99.90;;;;;;4987984;28;20053;-78
2022/12/17 17:54:22;;;;;;;65.32;26.02;;;-1.80;99.90;;;;;;4987560;28;20092;-78
2022/12/17 17:56:47;;;;;;;64.95;26.58;;;-1.80;99.90;;;;;;4988578;28;20046;-77
2022/12/17 17:59:18;;;;;;;63.80;24.63;;;-1.90;99.90;;;;;;4988657;28;20121;-77
2022/12/17 18:01:47;;;;;;;59.55;25.88;;;-1.60;99.90;;;;;;4988421;28;20547;-78
2022/12/17 18:04:15;;;;;;;57.05;24.27;;;-1.90;99.90;;;;;;4989320;28;20187;-78
2022/12/17 18:06:43;;;;;;;61.28;26.15;;;-1.90;99.90;;;;;;4987652;28;20405;-78
2022/12/17 18:09:09;;;;;;;63.40;25.70;;;-2.00;99.90;;;;;;4987548;28;20058;-78
2022/12/17 18:11:36;;;;;;;62.10;27.23;;;-2.00;99.90;;;;;;4988570;28;20394;-78
2022/12/17 18:14:03;;;;;;;61.05;27.63;;;-2.00;99.90;;;;;;4985958;28;20153;-78
2022/12/17 18:16:30;;;;;;;70.95;27.27;;;-2.10;99.90;;;;;;4986926;28;20169;-79
2022/12/17 18:19:01;;;;;;;69.80;27.67;;;-1.90;99.90;;;;;;4986966;28;20125;-78
2022/12/17 18:21:28;;;;;;;59.55;26.58;;;-0.70;99.90;;;;;;4971439;28;20405;-78
2022/12/17 18:23:59;;;;;;;69.38;27.63;;;-2.00;99.90;;;;;;4988932;28;20492;-78
2022/12/17 18:26:27;;;;;;;64.50;27.13;;;-2.00;99.90;;;;;;4988060;28;20046;-78
2022/12/17 18:28:53;;;;;;;69.28;29.42;;;-1.90;99.90;;;;;;4987198;28;20449;-78
2022/12/17 18:31:21;;;;;;;65.70;28.42;;;-1.90;99.90;;;;;;4988311;28;20489;-78
2022/12/17 18:33:51;;;;;;;69.85;28.98;;;-2.00;99.90;;;;;;4987578;28;20177;-79
2022/12/17 18:36:21;;;;;;;67.13;27.90;;;-2.00;99.90;;;;;;4987534;28;20042;-78
2022/12/17 18:38:53;;;;;;;68.85;28.92;;;-2.00;99.90;;;;;;4988566;28;20054;-78
2022/12/17 18:44:05;;;;;;;70.18;28.17;;;-2.10;99.90;;;;;;4987091;28;20485;-78
2022/12/17 18:46:32;;;;;;;67.15;28.17;;;-2.10;99.90;;;;;;4988486;28;20050;-78
2022/12/17 18:48:59;;;;;;;65.07;27.88;;;-2.10;99.90;;;;;;4987114;28;20057;-77
2022/12/17 18:51:27;;;;;;;75.88;30.13;;;-2.00;99.90;;;;;;4969438;28;20053;-78
2022/12/17 18:54:00;;;;;;;62.80;28.10;;;-2.00;99.90;;;;;;4985635;28;20487;-78
2022/12/17 18:56:27;;;;;;;69.90;30.33;;;-2.10;99.90;;;;;;4986159;28;20528;-78
2022/12/17 18:58:54;;;;;;;65.28;29.88;;;-1.90;99.90;;;;;;4988574;28;20084;-78
2022/12/17 19:01:22;;;;;;;66.53;29.15;;;-2.00;99.90;;;;;;4985990;28;20672;-79
2022/12/17 19:03:50;;;;;;;67.38;29.45;;;-2.10;99.90;;;;;;4987756;28;20409;-78
2022/12/17 19:06:18;;;;;;;73.30;29.90;;;-2.10;99.90;;;;;;4988403;28;20045;-78
2022/12/17 19:08:44;;;;;;;60.67;27.20;;;-2.10;99.90;;;;;;4987259;28;20038;-78
2022/12/17 19:11:11;;;;;;;63.05;28.58;;;-2.20;99.90;;;;;;4986466;28;20050;-78
2022/12/17 19:13:37;;;;;;;66.53;30.88;;;-2.20;99.90;;;;;;4987689;28;20046;-78
2022/12/17 19:16:08;;;;;;;71.30;30.50;;;-2.20;99.90;;;;;;4987476;28;20038;-78
2022/12/17 19:18:33;;;;;;;74.53;32.55;;;-2.20;99.90;;;;;;4986531;28;20089;-78
2022/12/17 19:21:00;;;;;;;68.57;32.90;;;-2.10;99.90;;;;;;4988266;28;20088;-78
2022/12/17 19:23:26;;;;;;;72.18;33.75;;;-1.50;99.90;;;;;;4988078;28;20165;-80
2022/12/17 19:25:52;;;;;;;86.03;33.13;;;-2.30;99.90;;;;;;4986051;28;20054;-78
2022/12/17 19:28:18;;;;;;;73.10;32.50;;;-2.10;99.90;;;;;;4987034;28;20054;-78
2022/12/17 19:30:43;;;;;;;78.38;33.30;;;-2.20;99.90;;;;;;4987961;28;20097;-79
2022/12/17 19:33:11;;;;;;;79.07;34.05;;;-1.90;99.90;;;;;;4986582;28;20058;-79
2022/12/17 19:35:37;;;;;;;72.30;34.30;;;-2.20;99.90;;;;;;4984243;28;20175;-79
2022/12/17 19:38:03;;;;;;;82.28;33.28;;;-2.20;99.90;;;;;;4980553;28;20034;-78
2022/12/17 19:40:28;;;;;;;75.13;33.13;;;-1.90;99.90;;;;;;4983707;28;20046;-78
2022/12/17 19:42:55;;;;;;;73.43;31.15;;;-2.10;99.90;;;;;;4983272;28;20154;-78
2022/12/17 19:45:20;;;;;;;70.60;30.23;;;-2.10;99.90;;;;;;4986435;28;20054;-78
2022/12/17 19:47:46;;;;;;;65.63;30.65;;;-2.10;99.90;;;;;;4970201;28;20042;-78
2022/12/17 19:50:12;;;;;;;79.30;33.15;;;-2.20;99.90;;;;;;4986708;28;20039;-78
2022/12/17 19:52:38;;;;;;;69.60;29.70;;;-2.30;99.90;;;;;;4987559;28;20456;-78
2022/12/17 19:55:04;;;;;;;76.40;31.00;;;-2.20;99.90;;;;;;4985419;28;20042;-78
2022/12/17 19:57:30;;;;;;;62.30;27.58;;;-2.20;99.90;;;;;;4990720;28;20157;-78
2022/12/17 19:59:56;;;;;;;65.93;28.83;;;-2.20;99.90;;;;;;4990722;28;20085;-78
2022/12/17 20:02:21;;;;;;;69.57;29.05;;;-2.20;99.90;;;;;;4989709;28;20050;-79
2022/12/17 20:04:47;;;;;;;68.50;28.95;;;-2.30;99.90;;;;;;4990590;28;20046;-78
2022/12/17 20:07:13;;;;;;;79.43;29.42;;;-2.40;99.90;;;;;;4989967;28;20141;-80
2022/12/17 20:09:39;;;;;;;74.75;28.88;;;-2.40;99.90;;;;;;4991753;28;20034;-78
2022/12/17 20:12:05;;;;;;;70.82;27.98;;;-2.40;99.90;;;;;;4990865;28;20042;-78
2022/12/17 20:14:33;;;;;;;72.97;28.92;;;-2.10;99.90;;;;;;4990031;28;20760;-78
2022/12/17 20:16:59;;;;;;;71.70;26.98;;;-2.60;99.90;;;;;;4989797;28;20592;-78
2022/12/17 20:19:30;;;;;;;80.38;30.15;;;-2.40;99.90;;;;;;4990510;28;20149;-78
2022/12/17 20:21:57;;;;;;;68.75;27.83;;;-2.40;99.90;;;;;;4991089;28;20128;-78
2022/12/17 20:24:23;;;;;;;74.53;30.13;;;-2.40;99.90;;;;;;4990835;28;20472;-78
2022/12/17 20:26:51;;;;;;;75.20;31.65;;;-2.20;99.90;;;;;;4989421;28;20416;-78
2022/12/17 20:29:18;;;;;;;76.60;30.58;;;-2.30;99.90;;;;;;4990712;28;20065;-78
2022/12/17 20:31:43;;;;;;;75.05;30.73;;;-2.50;99.90;;;;;;4991092;28;20096;-78
2022/12/17 20:34:12;;;;;;;78.22;30.83;;;-2.50;99.90;;;;;;4989481;28;20047;-78
2022/12/17 20:36:39;;;;;;;72.53;30.58;;;-2.40;99.90;;;;;;4989749;28;20540;-79
2022/12/17 20:39:05;;;;;;;77.93;30.80;;;-2.50;99.90;;;;;;4990830;28;20061;-78
2022/12/17 20:41:31;;;;;;;79.88;32.70;;;-2.20;99.90;;;;;;4988776;28;20049;-78
2022/12/17 20:44:03;;;;;;;80.20;32.20;;;-2.40;99.90;;;;;;4989332;28;20072;-78
2022/12/17 20:46:28;;;;;;;77.25;32.13;;;-2.40;99.90;;;;;;4988965;28;20050;-78
2022/12/17 20:48:54;;;;;;;80.57;32.08;;;-2.40;99.90;;;;;;4991494;28;20432;-78
2022/12/17 20:51:25;;;;;;;77.80;30.60;;;-2.50;99.90;;;;;;4988871;28;20054;-78
2022/12/17 20:53:52;;;;;;;82.45;30.23;;;-2.50;99.90;;;;;;4991630;28;20078;-77
2022/12/17 20:56:20;;;;;;;73.95;31.67;;;-2.40;99.90;;;;;;4989334;28;20065;-78
2022/12/17 20:58:50;;;;;;;78.38;29.70;;;-2.50;99.90;;;;;;4985855;28;20050;-77
2022/12/17 21:01:19;;;;;;;66.57;28.10;;;-2.60;99.90;;;;;;4989013;28;20062;-78
2022/12/17 21:03:46;;;;;;;74.53;28.60;;;-2.60;99.90;;;;;;4988422;28;20038;-78
2022/12/17 21:06:21;;;;;;;71.88;30.23;;;-2.60;99.90;;;;;;4987586;28;20050;-78
2022/12/17 21:08:48;;;;;;;65.90;28.50;;;-2.60;99.90;;;;;;4987785;28;20170;-77
2022/12/17 21:11:15;;;;;;;69.20;29.23;;;-2.60;99.90;;;;;;4987473;28;20042;-78
2022/12/17 21:13:42;;;;;;;72.95;28.83;;;-2.40;99.90;;;;;;4990048;28;20112;-78
2022/12/17 21:16:13;;;;;;;67.90;28.67;;;-2.70;99.90;;;;;;4990230;28;20053;-78
2022/12/17 21:18:40;;;;;;;80.27;29.93;;;-2.60;99.90;;;;;;4989538;28;20054;-78
2022/12/17 21:21:17;;;;;;;76.97;29.50;;;-2.60;99.90;;;;;;4989510;28;20294;-78
2022/12/17 21:23:45;;;;;;;81.00;30.13;;;-2.60;99.90;;;;;;4989578;28;20050;-78
2022/12/17 21:26:17;;;;;;;83.10;31.30;;;-2.50;99.90;;;;;;4988476;28;20062;-78
2022/12/17 21:28:45;;;;;;;78.13;31.00;;;-2.60;99.90;;;;;;4989165;28;20054;-77
2022/12/17 21:31:31;;;;;;;81.70;31.92;;;-2.60;99.90;;;;;;4989363;28;20289;-78
2022/12/17 21:33:59;;;;;;;78.50;31.40;;;-2.60;99.90;;;;;;4988223;28;20050;-78
2022/12/17 21:36:26;;;;;;;86.55;31.25;;;-2.50;99.90;;;;;;4988454;28;20065;-77
2022/12/17 21:38:52;;;;;;;84.95;32.42;;;-2.60;99.90;;;;;;4987804;28;20524;-78
2022/12/17 21:41:31;;;;;;;76.88;29.77;;;-2.50;99.90;;;;;;4970535;28;20054;-78
2022/12/17 21:44:00;;;;;;;82.57;29.58;;;-2.60;99.90;;;;;;4988845;28;20042;-79
2022/12/17 21:46:27;;;;;;;87.10;31.40;;;-2.60;99.90;;;;;;4988040;28;20069;-78
2022/12/17 21:48:53;;;;;;;87.18;31.25;;;-2.60;99.90;;;;;;4989494;28;20141;-78
2022/12/17 21:51:20;;;;;;;84.70;31.55;;;-2.50;99.90;;;;;;4987446;28;20125;-78
2022/12/17 21:53:46;;;;;;;82.15;29.98;;;-2.90;99.90;;;;;;4987330;28;20042;-78
2022/12/17 21:56:14;;;;;;;73.18;29.17;;;-2.60;99.90;;;;;;4988889;28;20050;-78
2022/12/17 21:58:42;;;;;;;75.50;29.92;;;-2.60;99.90;;;;;;4989090;28;20101;-78
2022/12/17 22:01:20;;;;;;;76.68;31.38;;;-2.70;99.90;;;;;;4988431;28;20149;-78
2022/12/17 22:03:47;;;;;;;77.43;28.17;;;-2.70;99.90;;;;;;4989143;28;20143;-78
2022/12/17 22:06:15;;;;;;;78.65;29.55;;;-2.70;99.90;;;;;;4987472;28;20050;-78
2022/12/17 22:08:41;;;;;;;75.40;28.52;;;-2.80;99.90;;;;;;4987955;28;20042;-78
2022/12/17 22:11:18;;;;;;;74.05;28.17;;;-2.90;99.90;;;;;;4988530;28;20042;-78
2022/12/17 22:16:31;;;;;;;78.63;27.98;;;-2.80;99.90;;;;;;4986788;28;20058;-78
2022/12/17 22:18:58;;;;;;;79.07;28.70;;;-2.80;99.90;;;;;;4987191;28;20452;-78
2022/12/17 22:21:24;;;;;;;67.78;27.05;;;-2.80;99.90;;;;;;4987832;28;20420;-78
2022/12/17 22:23:49;;;;;;;66.97;26.38;;;-2.90;99.90;;;;;;4989299;28;20050;-78
2022/12/17 22:26:17;;;;;;;63.50;26.13;;;-2.80;99.90;;;;;;4987890;28;20050;-78
2022/12/17 22:28:47;;;;;;;65.93;25.55;;;-2.00;99.90;;;;;;4987051;28;20066;-78
2022/12/17 22:33:59;;;;;;;68.47;26.42;;;-2.90;99.90;;;;;;4987780;28;20062;-79
2022/12/17 22:36:27;;;;;;;71.35;24.33;;;-3.00;99.90;;;;;;4988879;28;20097;-79
2022/12/17 22:38:53;;;;;;;66.32;24.65;;;-2.90;99.90;;;;;;4971438;28;20112;-80
2022/12/17 22:44:03;;;;;;;63.67;25.02;;;-3.10;99.90;;;;;;4987190;28;20054;-79
2022/12/17 22:46:29;;;;;;;63.72;24.35;;;-3.00;99.90;;;;;;4971066;28;20065;-79
2022/12/17 22:48:56;;;;;;;68.40;25.55;;;-3.10;99.90;;;;;;4986979;28;20089;-79
2022/12/17 22:51:22;;;;;;;68.60;25.77;;;-3.10;99.90;;;;;;4987422;28;20097;-79
2022/12/17 22:53:49;;;;;;;70.20;26.42;;;-2.90;99.90;;;;;;4989332;28;20397;-79
2022/12/17 22:56:16;;;;;;;68.78;25.90;;;-2.90;99.90;;;;;;4986595;28;20564;-79
2022/12/17 22:58:42;;;;;;;73.90;25.80;;;-3.10;99.90;;;;;;4988012;28;20050;-79
2022/12/17 23:01:07;;;;;;;70.35;26.88;;;-3.20;99.90;;;;;;4988461;28;20101;-79
2022/12/17 23:03:33;;;;;;;69.40;27.15;;;-2.90;99.90;;;;;;4986876;28;20475;-79
2022/12/17 23:06:11;;;;;;;63.38;27.27;;;-3.10;99.90;;;;;;4988864;28;20054;-79
2022/12/17 23:08:37;;;;;;;70.68;27.20;;;-3.10;99.90;;;;;;4970883;28;20511;-79
2022/12/17 23:11:15;;;;;;;73.38;26.88;;;-3.20;99.90;;;;;;4971147;28;20046;-79
2022/12/17 23:13:41;;;;;;;75.55;27.02;;;-3.10;99.90;;;;;;4989473;28;20132;-79
2022/12/17 23:16:09;;;;;;;75.40;28.27;;;-3.10;99.90;;;;;;4987944;28;20054;-79
2022/12/17 23:18:35;;;;;;;73.25;26.95;;;-3.10;99.90;;;;;;4987760;28;20065;-79
2022/12/17 23:21:10;;;;;;;81.07;28.63;;;-3.10;99.90;;;;;;4988518;28;20047;-79
2022/12/17 23:23:36;;;;;;;78.75;28.60;;;-3.10;99.90;;;;;;4987277;28;20108;-79
2022/12/17 23:26:10;;;;;;;71.63;27.20;;;-3.10;99.90;;;;;;4986700;28;20052;-78
2022/12/17 23:28:37;;;;;;;74.10;27.38;;;-3.20;99.90;;;;;;4988860;28;20531;-79
2022/12/17 23:31:11;;;;;;;70.22;25.95;;;-3.40;99.90;;;;;;4987255;28;20538;-79
2022/12/17 23:33:37;;;;;;;72.78;29.40;;;-3.20;99.90;;;;;;4989319;28;20057;-79
2022/12/17 23:36:10;;;;;;;75.88;29.33;;;-3.20;99.90;;;;;;4990789;28;20046;-79
2022/12/17 23:38:36;;;;;;;73.28;29.05;;;-3.20;99.90;;;;;;4991971;28;20081;-79
2022/12/17 23:41:04;;;;;;;69.78;27.73;;;-3.20;99.90;;;;;;4990617;28;20722;-79
2022/12/17 23:43:30;;;;;;;81.25;27.17;;;-3.20;99.90;;;;;;4991693;28;20042;-79
2022/12/17 23:45:56;;;;;;;80.28;29.80;;;-3.30;99.90;;;;;;4990912;28;20105;-79
2022/12/17 23:48:21;;;;;;;87.53;28.23;;;-3.20;99.90;;;;;;4974926;28;20043;-79
2022/12/17 23:50:47;;;;;;;77.65;28.35;;;-3.30;99.90;;;;;;4991280;28;20158;-79
2022/12/17 23:53:12;;;;;;;74.40;27.40;;;-3.10;99.90;;;;;;4991161;28;20042;-79
2022/12/17 23:55:38;;;;;;;82.80;27.58;;;-3.40;99.90;;;;;;4990817;28;20474;-79
2022/12/17 23:58:03;;;;;;;81.28;27.42;;;-3.40;99.90;;;;;;4990951;28;20050;-79
